createdAt,value
2022-08-25T00:00:16.201Z,81.16
2022-08-25T00:02:55.322Z,81.39
2022-08-25T00:05:29.487Z,80.75
2022-08-25T00:08:01.449Z,81.00
2022-08-25T00:10:30.381Z,80.90
2022-08-25T00:13:00.322Z,80.84
2022-08-25T00:15:31.190Z,81.14
2022-08-25T00:17:59.957Z,81.17
2022-08-25T00:20:30.449Z,81.13
2022-08-25T00:22:58.819Z,81.09
2022-08-25T00:25:27.618Z,81.36
2022-08-25T00:27:57.153Z,80.98
2022-08-25T00:30:26.690Z,81.44
2022-08-25T00:32:57.191Z,81.60
2022-08-25T00:35:27.397Z,82.09
2022-08-25T00:37:55.829Z,81.97
2022-08-25T00:40:27.135Z,82.51
2022-08-25T00:42:56.051Z,82.23
2022-08-25T00:45:26.463Z,82.31
2022-08-25T00:47:55.005Z,82.71
2022-08-25T00:50:29.154Z,82.85
2022-08-25T00:53:03.228Z,83.05
2022-08-25T00:55:35.695Z,82.87
2022-08-25T00:58:11.613Z,83.07
2022-08-25T01:00:49.441Z,82.94
2022-08-25T01:03:19.375Z,83.11
2022-08-25T01:05:49.134Z,84.04
2022-08-25T01:08:22.081Z,84.41
2022-08-25T01:10:51.409Z,84.34
2022-08-25T01:13:25.589Z,84.76
2022-08-25T01:15:57.678Z,84.76
2022-08-25T01:18:28.515Z,84.80
2022-08-25T01:20:59.726Z,85.42
2022-08-25T01:23:28.670Z,85.27
2022-08-25T01:26:04.266Z,85.52
2022-08-25T01:28:33.498Z,85.74
2022-08-25T01:31:01.840Z,85.63
2022-08-25T01:33:30.090Z,85.67
2022-08-25T01:35:59.621Z,85.74
2022-08-25T01:38:28.628Z,85.68
2022-08-25T01:40:56.801Z,85.71
2022-08-25T01:43:37.079Z,85.40
2022-08-25T01:46:05.744Z,85.21
2022-08-25T01:48:33.993Z,84.96
2022-08-25T01:51:03.672Z,85.57
2022-08-25T01:53:33.866Z,85.91
2022-08-25T01:56:11.499Z,85.99
2022-08-25T01:58:42.879Z,85.70
2022-08-25T02:01:17.631Z,86.06
2022-08-25T02:03:50.010Z,84.45
2022-08-25T02:06:28.699Z,85.10
2022-08-25T02:09:01.294Z,85.75
2022-08-25T02:11:30.189Z,85.20
2022-08-25T02:13:59.198Z,84.74
2022-08-25T02:16:30.725Z,84.39
2022-08-25T02:19:00.149Z,84.35
2022-08-25T02:21:30.110Z,83.86
2022-08-25T02:23:58.352Z,85.15
2022-08-25T02:26:27.003Z,85.62
2022-08-25T02:28:55.517Z,85.67
2022-08-25T02:31:26.183Z,85.30
2022-08-25T02:33:55.430Z,85.71
2022-08-25T02:36:24.208Z,85.71
2022-08-25T02:38:53.913Z,85.92
2022-08-25T02:41:31.049Z,86.40
2022-08-25T02:44:00.711Z,86.07
2022-08-25T02:46:29.453Z,86.16
2022-08-25T02:48:57.809Z,86.15
2022-08-25T02:51:29.947Z,86.64
2022-08-25T02:54:01.324Z,87.41
2022-08-25T02:56:30.839Z,88.56
2022-08-25T02:58:59.187Z,88.79
2022-08-25T03:01:28.663Z,87.92
2022-08-25T03:03:58.553Z,87.77
2022-08-25T03:06:28.020Z,88.22
2022-08-25T03:08:56.664Z,88.29
2022-08-25T03:11:26.712Z,88.59
2022-08-25T03:13:56.450Z,88.61
2022-08-25T03:16:27.949Z,89.28
2022-08-25T03:18:56.946Z,88.03
2022-08-25T03:21:26.249Z,88.39
2022-08-25T03:23:54.628Z,89.34
2022-08-25T03:26:42.521Z,88.48
2022-08-25T03:29:13.644Z,88.32
2022-08-25T03:31:43.833Z,88.82
2022-08-25T03:34:12.289Z,88.81
2022-08-25T03:36:40.686Z,89.30
2022-08-25T03:39:09.396Z,88.08
2022-08-25T03:41:39.029Z,87.01
2022-08-25T03:44:09.668Z,87.53
2022-08-25T03:46:42.020Z,86.79
2022-08-25T03:49:13.945Z,86.58
2022-08-25T03:51:46.929Z,87.07
2022-08-25T03:54:16.355Z,87.45
2022-08-25T03:56:46.490Z,88.55
2022-08-25T03:59:15.012Z,90.06
2022-08-25T04:01:46.194Z,89.36
2022-08-25T04:04:17.250Z,89.53
2022-08-25T04:06:48.137Z,89.38
2022-08-25T04:09:16.491Z,87.79
2022-08-25T04:11:46.473Z,88.12
2022-08-25T04:14:17.557Z,88.08
2022-08-25T04:16:46.758Z,87.16
2022-08-25T04:19:15.572Z,88.51
2022-08-25T04:21:44.291Z,88.75
2022-08-25T04:24:14.324Z,89.57
2022-08-25T04:26:47.326Z,89.61
2022-08-25T04:29:18.937Z,88.57
2022-08-25T04:31:52.426Z,87.87
2022-08-25T04:34:29.645Z,87.00
2022-08-25T04:37:01.181Z,86.60
2022-08-25T04:39:29.842Z,85.98
2022-08-25T04:42:00.793Z,85.90
2022-08-25T04:44:30.244Z,86.69
2022-08-25T04:46:58.708Z,86.60
2022-08-25T04:49:27.121Z,87.64
2022-08-25T04:51:59.651Z,88.65
2022-08-25T04:54:28.300Z,89.41
2022-08-25T04:56:57.965Z,90.36
2022-08-25T04:59:30.342Z,90.52
2022-08-25T05:02:02.376Z,91.15
2022-08-25T05:04:32.625Z,92.35
2022-08-25T05:07:01.672Z,92.16
2022-08-25T05:09:33.415Z,94.04
2022-08-25T05:12:02.914Z,94.70
2022-08-25T05:14:33.732Z,96.55
2022-08-25T05:17:02.829Z,95.86
2022-08-25T05:19:31.515Z,96.11
2022-08-25T05:21:59.741Z,95.11
2022-08-25T05:24:29.576Z,95.69
2022-08-25T05:26:58.725Z,95.46
2022-08-25T05:29:27.947Z,94.60
2022-08-25T05:31:57.648Z,93.92
2022-08-25T05:34:25.963Z,93.32
2022-08-25T05:36:54.589Z,93.89
2022-08-25T05:39:22.916Z,94.69
2022-08-25T05:41:52.912Z,93.80
2022-08-25T05:44:21.583Z,94.75
2022-08-25T05:46:51.232Z,93.75
2022-08-25T05:49:21.102Z,93.25
2022-08-25T05:51:49.444Z,92.81
2022-08-25T05:54:17.804Z,91.57
2022-08-25T05:56:46.484Z,91.72
2022-08-25T05:59:15.048Z,92.33
2022-08-25T06:02:00.530Z,92.64
2022-08-25T06:04:30.272Z,92.36
2022-08-25T06:06:58.487Z,92.31
2022-08-25T06:09:27.513Z,92.59
2022-08-25T06:11:56.059Z,92.22
2022-08-25T06:14:24.960Z,92.19
2022-08-25T06:16:53.930Z,92.62
2022-08-25T06:19:23.417Z,92.15
2022-08-25T06:21:56.598Z,91.73
2022-08-25T06:24:26.190Z,91.87
2022-08-25T06:26:54.985Z,91.60
2022-08-25T06:29:24.291Z,91.86
2022-08-25T06:31:52.643Z,91.77
2022-08-25T06:34:23.796Z,91.84
2022-08-25T06:36:53.230Z,91.14
2022-08-25T06:39:24.063Z,91.04
2022-08-25T06:41:54.074Z,90.67
2022-08-25T06:44:23.460Z,89.68
2022-08-25T06:46:52.224Z,89.06
2022-08-25T06:49:20.797Z,87.80
2022-08-25T06:51:49.575Z,87.00
2022-08-25T06:54:17.850Z,86.32
2022-08-25T06:56:47.471Z,86.11
2022-08-25T06:59:18.761Z,85.40
2022-08-25T07:01:47.201Z,85.24
2022-08-25T07:04:18.498Z,85.76
2022-08-25T07:06:46.981Z,84.54
2022-08-25T07:09:15.648Z,83.62
2022-08-25T07:11:45.147Z,82.58
2022-08-25T07:14:17.362Z,82.00
2022-08-25T07:16:49.568Z,82.05
2022-08-25T07:19:20.789Z,80.79
2022-08-25T07:21:53.079Z,80.86
2022-08-25T07:24:22.154Z,80.04
2022-08-25T07:26:50.975Z,79.53
2022-08-25T07:29:32.239Z,78.95
2022-08-25T07:32:01.962Z,78.21
2022-08-25T07:34:52.495Z,77.87
2022-08-25T07:37:47.788Z,77.19
2022-08-25T07:40:16.013Z,76.97
2022-08-25T07:42:44.483Z,76.08
2022-08-25T07:45:17.403Z,75.69
2022-08-25T07:47:52.144Z,75.19
2022-08-25T07:50:21.521Z,75.66
2022-08-25T07:52:55.431Z,75.13
2022-08-25T07:55:26.004Z,74.09
2022-08-25T07:57:59.672Z,74.38
2022-08-25T08:00:32.533Z,73.56
2022-08-25T08:03:10.027Z,72.42
2022-08-25T08:05:42.811Z,72.57
2022-08-25T08:08:11.888Z,72.00
2022-08-25T08:11:02.708Z,70.75
2022-08-25T08:13:29.854Z,70.57
2022-08-25T08:15:59.571Z,70.23
2022-08-25T08:18:27.854Z,68.92
2022-08-25T08:20:56.117Z,68.34
2022-08-25T08:23:27.734Z,68.47
2022-08-25T08:25:56.494Z,67.59
2022-08-25T08:28:27.836Z,66.74
2022-08-25T08:30:56.121Z,66.75
2022-08-25T08:33:26.574Z,66.55
2022-08-25T08:36:05.275Z,65.91
2022-08-25T08:38:34.679Z,65.95
2022-08-25T08:41:40.120Z,65.23
2022-08-25T08:44:26.225Z,65.54
2022-08-25T08:47:05.283Z,64.91
2022-08-25T08:49:48.280Z,65.41
2022-08-25T08:52:23.720Z,64.76
2022-08-25T08:55:01.048Z,64.52
2022-08-25T08:57:31.417Z,62.88
2022-08-25T09:00:03.618Z,63.79
2022-08-25T09:02:39.127Z,63.09
2022-08-25T09:05:25.439Z,63.26
2022-08-25T09:07:58.657Z,62.69
2022-08-25T09:10:43.076Z,62.24
2022-08-25T09:13:21.907Z,61.65
2022-08-25T09:16:34.343Z,62.15
2022-08-25T09:19:23.383Z,61.99
2022-08-25T09:22:02.452Z,60.22
2022-08-25T09:25:08.355Z,60.31
2022-08-25T09:27:42.802Z,59.81
2022-08-25T09:30:16.013Z,61.08
2022-08-25T09:32:48.950Z,60.47
2022-08-25T09:35:26.145Z,59.65
2022-08-25T09:38:01.900Z,60.11
2022-08-25T09:40:34.875Z,59.59
2022-08-25T09:43:06.609Z,58.27
2022-08-25T09:45:42.488Z,57.86
2022-08-25T09:48:25.866Z,58.43
2022-08-25T09:51:00.155Z,57.89
2022-08-25T09:53:33.810Z,57.77
2022-08-25T09:56:07.625Z,56.25
2022-08-25T09:58:36.303Z,56.44
2022-08-25T10:01:16.639Z,56.28
2022-08-25T10:04:05.689Z,57.12
2022-08-25T10:06:45.895Z,57.36
2022-08-25T10:09:30.448Z,57.11
2022-08-25T10:12:04.815Z,57.42
2022-08-25T10:14:38.763Z,56.65
2022-08-25T10:17:17.520Z,56.61
2022-08-25T10:19:45.737Z,55.35
2022-08-25T10:22:25.804Z,55.82
2022-08-25T10:24:56.137Z,55.96
2022-08-25T10:27:36.467Z,56.46
2022-08-25T10:30:19.121Z,55.35
2022-08-25T10:33:06.452Z,56.09
2022-08-25T10:35:48.792Z,56.49
2022-08-25T10:38:38.578Z,55.51
2022-08-25T10:41:36.119Z,55.02
2022-08-25T10:44:36.630Z,55.01
2022-08-25T10:47:30.033Z,55.21
2022-08-25T10:50:05.867Z,55.00
2022-08-25T10:52:40.916Z,54.50
2022-08-25T10:55:20.454Z,55.56
2022-08-25T10:57:59.251Z,54.71
2022-08-25T11:00:35.203Z,55.57
2022-08-25T11:03:29.916Z,54.04
2022-08-25T11:06:08.990Z,54.29
2022-08-25T11:08:42.651Z,53.74
2022-08-25T11:11:21.588Z,54.57
2022-08-25T11:13:58.772Z,53.48
2022-08-25T11:16:38.491Z,53.85
2022-08-25T11:19:17.826Z,52.96
2022-08-25T11:21:55.116Z,53.22
2022-08-25T11:24:39.771Z,53.33
2022-08-25T11:27:24.675Z,52.43
2022-08-25T11:30:07.078Z,53.20
2022-08-25T11:32:36.150Z,53.22
2022-08-25T11:35:09.040Z,53.42
2022-08-25T11:37:55.442Z,52.15
2022-08-25T11:40:50.571Z,51.52
2022-08-25T11:43:48.445Z,51.23
2022-08-25T11:46:39.603Z,50.89
2022-08-25T11:49:42.616Z,51.01
2022-08-25T11:52:49.138Z,50.57
2022-08-25T11:55:24.694Z,49.65
2022-08-25T11:58:34.833Z,49.92
2022-08-25T12:01:06.629Z,48.64
2022-08-25T12:03:55.501Z,48.37
2022-08-25T12:06:30.595Z,47.99
2022-08-25T12:09:20.862Z,48.33
2022-08-25T12:11:58.277Z,49.82
2022-08-25T12:14:47.991Z,49.48
2022-08-25T12:17:28.359Z,49.44
2022-08-25T12:20:01.782Z,47.43
2022-08-25T12:22:57.320Z,47.83
2022-08-25T12:25:49.313Z,48.05
2022-08-25T12:28:37.505Z,48.68
2022-08-25T12:31:24.939Z,48.71
2022-08-25T12:34:17.161Z,47.39
2022-08-25T12:37:00.682Z,48.09
2022-08-25T12:39:32.995Z,46.74
2022-08-25T12:42:06.138Z,46.78
2022-08-25T12:44:43.462Z,46.60
2022-08-25T12:47:31.773Z,46.14
2022-08-25T12:50:41.798Z,46.77
2022-08-25T12:53:20.046Z,45.86
2022-08-25T12:55:53.690Z,46.09
2022-08-25T12:58:59.799Z,45.33
2022-08-25T13:01:40.014Z,45.67
2022-08-25T13:04:35.910Z,46.27
2022-08-25T13:07:18.572Z,46.59
2022-08-25T13:10:23.278Z,46.28
2022-08-25T13:13:01.623Z,45.90
2022-08-25T13:15:40.115Z,45.94
2022-08-25T13:18:31.797Z,45.72
2022-08-25T13:21:10.601Z,45.75
2022-08-25T13:23:42.871Z,45.97
2022-08-25T13:26:15.544Z,46.68
2022-08-25T13:28:50.253Z,47.03
2022-08-25T13:31:22.194Z,47.30
2022-08-25T13:33:57.053Z,47.27
2022-08-25T13:36:47.478Z,46.70
2022-08-25T13:39:45.440Z,46.71
2022-08-25T13:42:18.312Z,46.54
2022-08-25T13:44:51.908Z,46.33
2022-08-25T13:47:45.686Z,46.38
2022-08-25T13:50:22.810Z,47.09
2022-08-25T13:52:56.999Z,46.71
2022-08-25T13:55:30.971Z,47.63
2022-08-25T13:58:16.589Z,47.56
2022-08-25T14:01:22.850Z,48.05
2022-08-25T14:07:33.993Z,48.39
2022-08-25T14:10:07.436Z,48.18
2022-08-25T14:12:44.705Z,47.69
2022-08-25T14:15:32.187Z,46.71
2022-08-25T14:18:08.133Z,46.89
2022-08-25T14:20:39.531Z,45.31
2022-08-25T14:23:16.141Z,45.49
2022-08-25T14:25:48.193Z,45.02
2022-08-25T14:28:19.728Z,44.31
2022-08-25T14:30:52.195Z,43.79
2022-08-25T14:33:23.597Z,44.94
2022-08-25T14:35:55.306Z,45.53
2022-08-25T14:38:24.513Z,45.55
2022-08-25T14:40:53.468Z,45.63
2022-08-25T14:43:24.120Z,46.00
2022-08-25T14:46:02.742Z,46.37
2022-08-25T14:48:36.999Z,46.17
2022-08-25T14:51:07.147Z,46.81
2022-08-25T14:53:35.661Z,47.01
2022-08-25T14:56:08.647Z,47.44
2022-08-25T14:58:48.403Z,47.43
2022-08-25T15:01:28.413Z,47.83
2022-08-25T15:04:03.571Z,47.94
2022-08-25T15:06:35.458Z,46.80
2022-08-25T15:09:33.400Z,46.91
2022-08-25T15:12:02.358Z,46.85
2022-08-25T15:14:33.453Z,46.41
2022-08-25T15:17:03.370Z,46.37
2022-08-25T15:19:31.780Z,46.28
2022-08-25T15:22:01.663Z,45.67
2022-08-25T15:24:31.536Z,46.55
2022-08-25T15:27:05.528Z,47.13
2022-08-25T15:29:35.553Z,47.29
2022-08-25T15:32:10.252Z,47.48
2022-08-25T15:34:38.820Z,47.46
2022-08-25T15:37:12.073Z,47.54
2022-08-25T15:39:42.569Z,47.85
2022-08-25T15:42:13.882Z,47.31
2022-08-25T15:44:42.742Z,47.44
2022-08-25T15:47:22.514Z,46.78
2022-08-25T15:49:51.143Z,46.25
2022-08-25T15:52:20.746Z,46.26
2022-08-25T15:54:49.070Z,46.24
2022-08-25T15:57:24.241Z,46.34
2022-08-25T15:59:53.451Z,46.45
2022-08-25T16:02:23.018Z,47.00
2022-08-25T16:04:53.009Z,46.70
2022-08-25T16:07:22.701Z,47.55
2022-08-25T16:09:50.963Z,47.74
2022-08-25T16:12:19.394Z,47.92
2022-08-25T16:14:47.947Z,48.47
2022-08-25T16:17:16.452Z,48.38
2022-08-25T16:19:44.660Z,48.80
2022-08-25T16:22:12.932Z,48.73
2022-08-25T16:24:44.332Z,48.37
2022-08-25T16:27:14.147Z,49.00
2022-08-25T16:29:45.580Z,49.13
2022-08-25T16:32:16.093Z,49.59
2022-08-25T16:34:44.648Z,50.01
2022-08-25T16:37:13.561Z,49.89
2022-08-25T16:39:45.748Z,50.08
2022-08-25T16:42:14.679Z,50.44
2022-08-25T16:44:42.960Z,50.43
2022-08-25T16:47:13.939Z,50.18
2022-08-25T16:49:43.433Z,49.93
2022-08-25T16:52:28.408Z,49.91
2022-08-25T16:55:15.154Z,50.50
2022-08-25T16:57:47.700Z,50.22
2022-08-25T17:00:21.919Z,50.40
2022-08-25T17:02:54.219Z,50.43
2022-08-25T17:05:22.733Z,50.13
2022-08-25T17:08:05.071Z,50.33
2022-08-25T17:10:37.925Z,51.29
2022-08-25T17:13:06.724Z,51.16
2022-08-25T17:15:35.644Z,51.57
2022-08-25T17:18:03.903Z,52.10
2022-08-25T17:20:33.208Z,51.89
2022-08-25T17:23:03.299Z,52.38
2022-08-25T17:25:43.448Z,52.01
2022-08-25T17:28:13.035Z,52.50
2022-08-25T17:30:42.561Z,52.37
2022-08-25T17:33:11.029Z,52.76
2022-08-25T17:35:40.882Z,52.98
2022-08-25T17:38:09.864Z,53.18
2022-08-25T17:40:39.647Z,53.20
2022-08-25T17:43:10.977Z,53.43
2022-08-25T17:45:39.418Z,53.41
2022-08-25T17:48:08.716Z,53.84
2022-08-25T17:50:39.109Z,54.23
2022-08-25T17:53:09.368Z,54.20
2022-08-25T17:55:39.800Z,54.16
2022-08-25T17:58:15.134Z,54.67
2022-08-25T18:00:45.650Z,55.13
2022-08-25T18:03:14.120Z,55.58
2022-08-25T18:05:45.061Z,55.63
2022-08-25T18:08:14.579Z,55.73
2022-08-25T18:10:43.582Z,56.45
2022-08-25T18:13:13.208Z,56.79
2022-08-25T18:15:43.305Z,57.34
2022-08-25T18:18:12.715Z,58.07
2022-08-25T18:20:47.181Z,57.96
2022-08-25T18:23:16.264Z,58.96
2022-08-25T18:25:44.680Z,59.21
2022-08-25T18:28:14.617Z,59.23
2022-08-25T18:30:43.175Z,59.56
2022-08-25T18:33:11.847Z,59.48
2022-08-25T18:35:40.408Z,59.82
2022-08-25T18:38:27.226Z,60.36
2022-08-25T18:41:00.748Z,61.05
2022-08-25T18:43:31.998Z,60.69
2022-08-25T18:46:04.732Z,60.82
2022-08-25T18:48:33.800Z,62.12
2022-08-25T18:51:02.777Z,62.20
2022-08-25T18:53:37.308Z,63.04
2022-08-25T18:56:07.370Z,63.14
2022-08-25T18:58:37.251Z,63.41
2022-08-25T19:01:06.744Z,63.70
2022-08-25T19:03:35.420Z,64.25
2022-08-25T19:06:03.710Z,64.87
2022-08-25T19:08:32.872Z,64.76
2022-08-25T19:11:01.163Z,64.83
2022-08-25T19:13:29.399Z,65.30
2022-08-25T19:15:59.453Z,65.69
2022-08-25T19:18:29.249Z,66.08
2022-08-25T19:20:59.256Z,66.10
2022-08-25T19:23:27.851Z,66.46
2022-08-25T19:25:56.297Z,67.16
2022-08-25T19:28:26.636Z,66.99
2022-08-25T19:30:54.937Z,67.23
2022-08-25T19:33:42.338Z,67.42
2022-08-25T19:36:15.014Z,67.39
2022-08-25T19:38:44.728Z,67.86
2022-08-25T19:41:15.133Z,68.07
2022-08-25T19:43:50.567Z,67.96
2022-08-25T19:46:25.311Z,68.53
2022-08-25T19:48:54.993Z,68.91
2022-08-25T19:51:25.147Z,69.68
2022-08-25T19:53:54.702Z,69.01
2022-08-25T19:56:24.731Z,69.13
2022-08-25T19:58:52.933Z,69.69
2022-08-25T20:01:29.183Z,70.06
2022-08-25T20:03:59.226Z,69.77
2022-08-25T20:06:27.903Z,69.97
2022-08-25T20:08:59.282Z,69.65
2022-08-25T20:11:30.089Z,70.40
2022-08-25T20:14:03.486Z,69.95
2022-08-25T20:16:32.481Z,70.88
2022-08-25T20:19:02.983Z,70.42
2022-08-25T20:21:39.126Z,71.09
2022-08-25T20:24:26.690Z,70.79
2022-08-25T20:26:56.357Z,71.65
2022-08-25T20:29:24.619Z,71.53
2022-08-25T20:31:52.912Z,71.94
2022-08-25T20:34:23.332Z,71.87
2022-08-25T20:36:53.802Z,71.75
2022-08-25T20:39:22.778Z,72.20
2022-08-25T20:41:51.165Z,72.85
2022-08-25T20:44:20.299Z,72.69
2022-08-25T20:46:51.785Z,72.29
2022-08-25T20:49:26.750Z,72.96
2022-08-25T20:51:55.336Z,72.67
2022-08-25T20:54:25.085Z,72.84
2022-08-25T20:56:54.282Z,73.55
2022-08-25T20:59:23.019Z,73.01
2022-08-25T21:01:51.615Z,73.34
2022-08-25T21:04:25.252Z,73.86
2022-08-25T21:06:54.132Z,73.74
2022-08-25T21:09:26.488Z,73.54
2022-08-25T21:11:58.216Z,74.01
2022-08-25T21:14:27.373Z,74.07
2022-08-25T21:16:56.537Z,74.29
2022-08-25T21:19:30.053Z,74.47
2022-08-25T21:22:00.017Z,75.10
2022-08-25T21:24:29.836Z,75.43
2022-08-25T21:27:00.674Z,75.78
2022-08-25T21:29:30.097Z,75.28
2022-08-25T21:31:59.615Z,75.93
2022-08-25T21:34:30.204Z,76.17
2022-08-25T21:36:59.353Z,75.98
2022-08-25T21:39:32.027Z,75.34
2022-08-25T21:42:01.372Z,75.93
2022-08-25T21:44:30.057Z,76.07
2022-08-25T21:46:58.637Z,75.92
2022-08-25T21:49:28.425Z,76.31
2022-08-25T21:52:00.988Z,76.34
2022-08-25T21:54:31.125Z,77.39
2022-08-25T21:57:02.111Z,76.85
2022-08-25T21:59:33.728Z,76.50
2022-08-25T22:02:09.055Z,76.93
2022-08-25T22:04:40.611Z,76.82
2022-08-25T22:07:10.787Z,77.29
2022-08-25T22:09:40.039Z,76.90
2022-08-25T22:12:09.358Z,77.14
2022-08-25T22:14:38.746Z,77.49
2022-08-25T22:17:12.255Z,78.35
2022-08-25T22:19:46.667Z,78.65
2022-08-25T22:22:15.798Z,79.14
2022-08-25T22:24:49.228Z,79.40
2022-08-25T22:27:17.498Z,79.59
2022-08-25T22:29:45.789Z,78.92
2022-08-25T22:32:14.033Z,79.84
2022-08-25T22:34:43.706Z,79.15
2022-08-25T22:37:13.548Z,79.33
2022-08-25T22:39:46.403Z,79.13
2022-08-25T22:42:15.381Z,79.61
2022-08-25T22:44:43.694Z,79.97
2022-08-25T22:47:12.511Z,80.19
2022-08-25T22:49:40.780Z,80.34
2022-08-25T22:52:11.605Z,80.19
2022-08-25T22:54:42.850Z,80.60
2022-08-25T22:57:11.851Z,80.04
2022-08-25T22:59:40.838Z,80.20
2022-08-25T23:02:09.571Z,80.78
2022-08-25T23:04:41.176Z,80.17
2022-08-25T23:07:12.655Z,80.35
2022-08-25T23:09:42.333Z,80.64
2022-08-25T23:12:13.165Z,80.50
2022-08-25T23:14:42.047Z,80.63
2022-08-25T23:17:12.470Z,81.04
2022-08-25T23:19:40.670Z,81.39
2022-08-25T23:22:13.062Z,81.31
2022-08-25T23:24:48.551Z,80.94
2022-08-25T23:27:21.813Z,81.37
2022-08-25T23:29:51.193Z,80.66
2022-08-25T23:32:19.799Z,81.05
2022-08-25T23:34:48.104Z,81.58
2022-08-25T23:37:18.417Z,81.87
2022-08-25T23:39:49.889Z,82.93
2022-08-25T23:42:19.691Z,82.71
2022-08-25T23:44:48.563Z,83.47
2022-08-25T23:47:16.985Z,83.57
2022-08-25T23:49:45.557Z,83.82
2022-08-25T23:52:17.178Z,83.95
2022-08-25T23:54:46.035Z,83.36
2022-08-25T23:57:15.649Z,83.70
2022-08-25T23:59:43.898Z,83.76
